createdAt,value
2023-01-27T00:27:26.202Z,1489.00
2023-01-27T00:28:26.079Z,1488.00
2023-01-27T00:29:26.023Z,1487.00
2023-01-27T00:30:25.858Z,1487.00
2023-01-27T00:31:25.789Z,1486.00
2023-01-27T00:32:25.614Z,1485.00
2023-01-27T00:33:25.547Z,1483.00
2023-01-27T00:34:25.383Z,1481.00
2023-01-27T00:35:25.294Z,1481.00
2023-01-27T00:36:25.158Z,1482.00
2023-01-27T00:37:25.050Z,1481.00
2023-01-27T00:38:24.933Z,1482.00
2023-01-27T00:39:24.828Z,1479.00
2023-01-27T00:40:24.701Z,1479.00
2023-01-27T00:41:25.118Z,1481.00
2023-01-27T00:42:24.479Z,1480.00
2023-01-27T00:43:24.365Z,1481.00
2023-01-27T00:44:24.264Z,1477.00
2023-01-27T00:45:24.135Z,1476.00
2023-01-27T00:46:24.062Z,1475.00
2023-01-27T00:47:23.899Z,1472.00
2023-01-27T00:48:23.785Z,1473.00
2023-01-27T00:49:23.724Z,1473.00
2023-01-27T00:50:23.543Z,1475.00
2023-01-27T00:51:23.434Z,1476.00
2023-01-27T00:52:23.370Z,1474.00
2023-01-27T00:53:23.195Z,1471.00
2023-01-27T00:54:23.079Z,1473.00
2023-01-27T00:55:22.949Z,1471.00
2023-01-27T00:56:22.852Z,1466.00
2023-01-27T00:57:22.721Z,1469.00
2023-01-27T00:58:22.609Z,1469.00
2023-01-27T00:59:22.569Z,1465.00
2023-01-27T01:00:22.373Z,1464.00
2023-01-27T01:01:22.273Z,1463.00
2023-01-27T01:02:22.126Z,1461.00
2023-01-27T01:03:22.629Z,1459.00
2023-01-27T01:04:21.903Z,1458.00
2023-01-27T01:05:21.774Z,1452.00
2023-01-27T01:06:21.674Z,1456.00
2023-01-27T01:07:21.549Z,1457.00
2023-01-27T01:08:21.426Z,1452.00
2023-01-27T02:16:13.964Z,1386.00
2023-01-27T02:17:13.635Z,1387.00
2023-01-27T02:18:13.534Z,1387.00
2023-01-27T02:19:13.428Z,1391.00
2023-01-27T02:20:13.312Z,1390.00
2023-01-27T02:21:13.209Z,1390.00
2023-01-27T02:22:13.102Z,1393.00
2023-01-27T02:23:12.976Z,1391.00
2023-01-27T02:24:12.898Z,1388.00
2023-01-27T02:25:12.990Z,1383.00
2023-01-27T02:26:12.650Z,1378.00
2023-01-27T02:27:12.532Z,1379.00
2023-01-27T02:28:12.417Z,1383.00
2023-01-27T02:29:12.299Z,1384.00
2023-01-27T02:30:12.199Z,1379.00
2023-01-27T02:31:12.162Z,1377.00
2023-01-27T02:32:12.026Z,1380.00
2023-01-27T02:33:11.853Z,1379.00
2023-01-27T02:34:11.738Z,1384.00
2023-01-27T02:35:12.017Z,1380.00
2023-01-27T02:36:11.502Z,1375.00
2023-01-27T03:10:07.272Z,1342.00
2023-01-27T03:11:07.118Z,1339.00
2023-01-27T03:12:07.063Z,1337.00
2023-01-27T03:13:06.867Z,1335.00
2023-01-27T03:14:06.737Z,1333.00
2023-01-27T03:15:06.603Z,1333.00
2023-01-27T03:16:06.500Z,1330.00
2023-01-27T03:17:06.351Z,1332.00
2023-01-27T03:18:06.241Z,1335.00
2023-01-27T03:19:06.107Z,1338.00
2023-01-27T03:20:05.957Z,1338.00
2023-01-27T03:21:05.829Z,1337.00
2023-01-27T03:22:05.693Z,1333.00
2023-01-27T03:23:05.574Z,1334.00
2023-01-27T03:24:05.483Z,1335.00
2023-01-27T03:25:05.308Z,1333.00
2023-01-27T03:26:05.245Z,1333.00
2023-01-27T03:27:05.060Z,1332.00
2023-01-27T03:28:04.921Z,1335.00
2023-01-27T03:29:04.798Z,1333.00
2023-01-27T03:30:04.651Z,1332.00
2023-01-27T03:31:04.653Z,1327.00
2023-01-27T03:32:04.408Z,1324.00
2023-01-27T03:33:04.307Z,1320.00
2023-01-27T03:34:04.146Z,1321.00
2023-01-27T03:35:04.052Z,1318.00
2023-01-27T03:36:03.882Z,1318.00
2023-01-27T03:37:03.786Z,1320.00
2023-01-27T03:38:03.631Z,1322.00
2023-01-27T03:39:03.521Z,1319.00
2023-01-27T03:40:03.399Z,1315.00
2023-01-27T03:41:03.260Z,1319.00
2023-01-27T03:42:03.114Z,1317.00
2023-01-27T03:43:02.982Z,1314.00
2023-01-27T03:44:02.865Z,1314.00
2023-01-27T03:45:02.740Z,1314.00
2023-01-27T03:46:02.704Z,1311.00
2023-01-27T03:47:02.457Z,1312.00
2023-01-27T03:48:02.388Z,1312.00
2023-01-27T03:49:02.181Z,1312.00
2023-01-27T03:50:02.035Z,1309.00
2023-01-27T03:51:01.888Z,1312.00
2023-01-27T03:52:01.789Z,1314.00
2023-01-27T03:53:01.625Z,1314.00
2023-01-27T03:54:01.520Z,1312.00
2023-01-27T04:35:55.486Z,1285.00
2023-01-27T04:36:55.371Z,1280.00
2023-01-27T04:37:55.260Z,1278.00
2023-01-27T04:38:55.107Z,1278.00
2023-01-27T04:39:54.978Z,1276.00
2023-01-27T04:40:54.849Z,1275.00
2023-01-27T04:41:54.708Z,1275.00
2023-01-27T04:42:54.573Z,1276.00
2023-01-27T04:43:54.444Z,1277.00
2023-01-27T04:44:54.308Z,1274.00
2023-01-27T04:45:54.192Z,1272.00
2023-01-27T04:46:54.063Z,1270.00
2023-01-27T04:47:53.911Z,1270.00
2023-01-27T04:48:53.771Z,1268.00
2023-01-27T04:49:53.647Z,1264.00
2023-01-27T04:50:53.511Z,1258.00
2023-01-27T04:51:53.391Z,1257.00
2023-01-27T04:52:53.246Z,1256.00
2023-01-27T04:53:53.125Z,1258.00
2023-01-27T04:54:52.984Z,1254.00
2023-01-27T04:55:52.846Z,1255.00
2023-01-27T04:56:52.732Z,1255.00
2023-01-27T04:57:52.593Z,1254.00
2023-01-27T04:58:52.496Z,1258.00
2023-01-27T04:59:53.297Z,1254.00
2023-01-27T05:00:52.190Z,1253.00
2023-01-27T05:01:52.342Z,1254.00
2023-01-27T05:02:51.968Z,1255.00
2023-01-27T05:03:51.873Z,1257.00
2023-01-27T05:04:51.674Z,1256.00
2023-01-27T05:05:51.535Z,1254.00
2023-01-27T05:06:51.409Z,1251.00
2023-01-27T05:43:46.338Z,1215.00
2023-01-27T05:46:45.953Z,1209.00
2023-01-27T05:47:45.769Z,1209.00
2023-01-27T05:48:45.728Z,1210.00
2023-01-27T05:49:45.498Z,1210.00
2023-01-27T05:50:45.360Z,1209.00
2023-01-27T05:51:45.237Z,1211.00
2023-01-27T05:52:45.099Z,1211.00
2023-01-27T05:53:44.965Z,1214.00
2023-01-27T05:54:44.835Z,1221.00
2023-01-27T05:55:44.695Z,1224.00
2023-01-27T05:56:44.564Z,1223.00
2023-01-27T05:57:44.438Z,1223.00
2023-01-27T05:58:44.316Z,1224.00
2023-01-27T05:59:44.158Z,1220.00
2023-01-27T06:00:44.037Z,1221.00
2023-01-27T06:01:43.941Z,1220.00
2023-01-27T06:02:43.784Z,1219.00
2023-01-27T06:03:43.733Z,1215.00
2023-01-27T06:04:43.498Z,1214.00
2023-01-27T06:05:43.362Z,1214.00
2023-01-27T06:06:43.240Z,1211.00
2023-01-27T06:07:43.146Z,1211.00
2023-01-27T06:08:42.988Z,1212.00
2023-01-27T06:09:42.838Z,1214.00
2023-01-27T06:10:42.709Z,1213.00
2023-01-27T06:11:42.561Z,1214.00
2023-01-27T06:12:42.461Z,1212.00
2023-01-27T06:13:42.724Z,1210.00
2023-01-27T06:14:42.168Z,1210.00
2023-01-27T06:15:42.022Z,1208.00
2023-01-27T06:16:41.931Z,1204.00
2023-01-27T06:17:41.751Z,1207.00
2023-01-27T06:18:41.613Z,1206.00
2023-01-27T06:19:41.477Z,1203.00
2023-01-27T06:44:37.595Z,1328.00
2023-01-27T06:45:37.438Z,1325.00
2023-01-27T06:46:37.329Z,1324.00
2023-01-27T06:47:37.093Z,1322.00
2023-01-27T06:48:36.981Z,1319.00
2023-01-27T06:49:36.768Z,1318.00
2023-01-27T06:50:36.632Z,1320.00
2023-01-27T06:51:36.478Z,1324.00
2023-01-27T06:52:36.280Z,1326.00
2023-01-27T06:53:36.132Z,1329.00
2023-01-27T06:54:35.939Z,1327.00
2023-01-27T06:55:35.797Z,1325.00
2023-01-27T06:56:35.615Z,1324.00
2023-01-27T06:57:35.445Z,1323.00
2023-01-27T06:58:35.370Z,1326.00
2023-01-27T06:59:35.113Z,1324.00
2023-01-27T07:00:34.998Z,1325.00
2023-01-27T07:01:34.878Z,1327.00
2023-01-27T07:02:34.658Z,1325.00
2023-01-27T07:03:35.543Z,1322.00
2023-01-27T07:04:34.429Z,1319.00
2023-01-27T07:05:34.214Z,1321.00
2023-01-27T07:06:34.080Z,1320.00
2023-01-27T07:07:33.942Z,1321.00
2023-01-27T07:08:33.807Z,1323.00
2023-01-27T07:09:50.562Z,1322.00
2023-01-27T07:10:34.498Z,1318.00
2023-01-27T07:11:33.322Z,1319.00
2023-01-27T07:12:33.167Z,1315.00
2023-01-27T07:13:33.010Z,1313.00
2023-01-27T07:14:32.842Z,1314.00
2023-01-27T07:15:32.688Z,1315.00
2023-01-27T07:16:32.581Z,1312.00
2023-01-27T07:17:32.359Z,1310.00
2023-01-27T07:18:32.202Z,1305.00
2023-01-27T07:19:32.044Z,1304.00
2023-01-27T07:20:32.884Z,1302.00
2023-01-27T07:21:31.720Z,1302.00
2023-01-27T07:22:31.556Z,1304.00
2023-01-27T07:23:31.414Z,1303.00
2023-01-27T07:24:31.233Z,1305.00
2023-01-27T07:25:31.066Z,1308.00
2023-01-27T07:26:30.895Z,1314.00
2023-01-27T07:27:30.746Z,1318.00
2023-01-27T07:28:30.636Z,1324.00
2023-01-27T07:29:31.175Z,1330.00
2023-01-27T07:30:30.420Z,1331.00
2023-01-27T07:31:30.208Z,1329.00
2023-01-27T07:32:29.925Z,1330.00
2023-01-27T07:33:29.763Z,1327.00
2023-01-27T07:34:29.620Z,1324.00
2023-01-27T07:35:29.451Z,1318.00
2023-01-27T07:36:29.291Z,1314.00
2023-01-27T07:37:29.151Z,1312.00
2023-01-27T07:38:28.958Z,1312.00
2023-01-27T07:39:28.862Z,1311.00
2023-01-27T07:40:28.691Z,1308.00
2023-01-27T07:41:29.472Z,1313.00
2023-01-27T07:42:28.335Z,1312.00
2023-01-27T07:43:28.143Z,1309.00
2023-01-27T07:44:27.987Z,1305.00
2023-01-27T07:45:27.872Z,1305.00
2023-01-27T07:46:27.648Z,1309.00
2023-01-27T07:47:27.480Z,1304.00
2023-01-27T07:48:27.391Z,1298.00
2023-01-27T07:49:27.752Z,1296.00
2023-01-27T07:50:27.006Z,1295.00
2023-01-27T07:51:26.896Z,1292.00
2023-01-27T07:52:26.655Z,1292.00
2023-01-27T07:53:26.495Z,1297.00
2023-01-27T07:54:26.335Z,1297.00
2023-01-27T07:55:26.764Z,1298.00
2023-01-27T07:56:25.980Z,1301.00
2023-01-27T07:57:25.828Z,1304.00
2023-01-27T07:58:25.641Z,1296.00
2023-01-27T13:29:47.543Z,3101.00
2023-01-27T13:37:47.567Z,3083.00
2023-01-27T13:38:47.643Z,3082.00
2023-01-27T13:39:47.590Z,3082.00
2023-01-27T13:40:48.448Z,3075.00
2023-01-27T13:41:47.593Z,3069.00
2023-01-27T13:42:47.567Z,3067.00
2023-01-27T13:43:47.579Z,3068.00
2023-01-27T13:44:47.604Z,3063.00
2023-01-27T13:45:47.598Z,3058.00
2023-01-27T13:46:47.645Z,3053.00
2023-01-27T13:47:48.385Z,3048.00
2023-01-27T13:48:47.612Z,3048.00
2023-01-27T13:49:47.625Z,3045.00
2023-01-27T13:50:47.643Z,3042.00
2023-01-27T13:51:47.665Z,3041.00
2023-01-27T13:52:47.646Z,3039.00
2023-01-27T13:53:47.683Z,3041.00
2023-01-27T13:54:47.652Z,3039.00
2023-01-27T13:55:47.669Z,3034.00
2023-01-27T13:56:47.688Z,3026.00
2023-01-27T13:57:48.394Z,3020.00
2023-01-27T13:58:47.695Z,3011.00
2023-01-27T13:59:47.742Z,3011.00
2023-01-27T14:00:47.726Z,3009.00
2023-01-27T14:01:47.803Z,3010.00
2023-01-27T14:02:47.718Z,3012.00
2023-01-27T14:03:47.850Z,3014.00
2023-01-27T14:04:47.797Z,3007.00
2023-01-27T14:05:47.767Z,2999.00
2023-01-27T14:06:47.755Z,2998.00
2023-01-27T14:07:47.776Z,3001.00
2023-01-27T14:08:47.789Z,2998.00
2023-01-27T14:09:47.890Z,2995.00
2023-01-27T14:10:47.815Z,2994.00
2023-01-27T14:11:47.825Z,2994.00
2023-01-27T14:12:47.916Z,2992.00
2023-01-27T14:13:47.857Z,2996.00
2023-01-27T14:14:57.824Z,2991.00
2023-01-27T14:15:48.936Z,2986.00
2023-01-27T14:16:47.781Z,2984.00
2023-01-27T14:17:47.753Z,2985.00
2023-01-27T14:18:47.709Z,2982.00
2023-01-27T14:19:47.762Z,2981.00
2023-01-27T14:20:47.628Z,2977.00
2023-01-27T14:21:50.276Z,2974.00
2023-01-27T14:22:48.551Z,2972.00
2023-01-27T14:23:47.512Z,2973.00
2023-01-27T14:24:47.466Z,2969.00
2023-01-27T14:25:47.419Z,2966.00
2023-01-27T14:26:47.374Z,2964.00
2023-01-27T14:27:47.333Z,2958.00
2023-01-27T14:28:47.285Z,2955.00
2023-01-27T14:29:47.228Z,2956.00
2023-01-27T14:30:47.203Z,2954.00
2023-01-27T14:31:47.198Z,2948.00
2023-01-27T14:32:47.156Z,2943.00
2023-01-27T14:33:47.165Z,2937.00
2023-01-27T14:34:47.183Z,2929.00
2023-01-27T14:35:47.188Z,2931.00
2023-01-27T14:36:47.201Z,2927.00
2023-01-27T14:37:47.215Z,2925.00
2023-01-27T14:38:48.337Z,2923.00
2023-01-27T14:39:47.233Z,2923.00
2023-01-27T14:40:47.239Z,2925.00
2023-01-27T14:41:47.301Z,2920.00
2023-01-27T14:42:47.277Z,2918.00
2023-01-27T14:43:47.302Z,2914.00
2023-01-27T14:45:01.200Z,2912.00
2023-01-27T14:45:48.259Z,2909.00
2023-01-27T14:46:47.277Z,2908.00
2023-01-27T14:47:47.175Z,2909.00
2023-01-27T14:48:47.148Z,2908.00
2023-01-27T14:49:47.095Z,2900.00
2023-01-27T14:50:47.073Z,2893.00
2023-01-27T14:51:47.017Z,2888.00
2023-01-27T14:52:46.980Z,2889.00
2023-01-27T14:53:46.931Z,2886.00
2023-01-27T14:54:47.030Z,2883.00
2023-01-27T14:55:46.997Z,2881.00
2023-01-27T14:56:47.161Z,2876.00
2023-01-27T14:57:47.043Z,2875.00
2023-01-27T14:58:47.085Z,2875.00
2023-01-27T14:59:47.106Z,2871.00
2023-01-27T15:00:47.274Z,2870.00
2023-01-27T15:01:47.232Z,2872.00
2023-01-27T15:02:47.164Z,2868.00
2023-01-27T15:03:47.189Z,2865.00
2023-01-27T15:04:47.219Z,2858.00
2023-01-27T15:05:47.279Z,2852.00
2023-01-27T15:06:47.305Z,2852.00
2023-01-27T15:07:47.300Z,2847.00
2023-01-27T15:08:47.319Z,2840.00
2023-01-27T15:09:47.355Z,2841.00
2023-01-27T15:10:47.384Z,2840.00
2023-01-27T15:11:47.410Z,2842.00
2023-01-27T15:12:47.448Z,2843.00
2023-01-27T15:13:47.478Z,2840.00
2023-01-27T15:14:48.413Z,2830.00
2023-01-27T15:15:47.528Z,2827.00
2023-01-27T15:16:47.571Z,2820.00
2023-01-27T15:17:47.611Z,2818.00
2023-01-27T15:18:47.627Z,2819.00
2023-01-27T15:19:47.707Z,2822.00
2023-01-27T15:20:47.685Z,2823.00
2023-01-27T15:21:47.722Z,2821.00
2023-01-27T15:22:47.761Z,2816.00
2023-01-27T15:23:47.799Z,2813.00
2023-01-27T15:24:47.834Z,2807.00
2023-01-27T15:25:47.882Z,2804.00
2023-01-27T15:26:47.919Z,2798.00
2023-01-27T15:27:47.950Z,2796.00
2023-01-27T15:28:48.921Z,2793.00
2023-01-27T15:29:48.022Z,2793.00
2023-01-27T15:30:48.089Z,2791.00
2023-01-27T15:31:48.134Z,2791.00
2023-01-27T15:32:48.087Z,2789.00
2023-01-27T15:33:48.131Z,2789.00
2023-01-27T15:34:48.217Z,2786.00
2023-01-27T15:35:48.256Z,2779.00
2023-01-27T15:36:48.275Z,2775.00
2023-01-27T15:37:48.224Z,2775.00
2023-01-27T15:38:48.251Z,2774.00
2023-01-27T15:39:55.789Z,2767.00
2023-01-27T15:40:49.240Z,2768.00
2023-01-27T15:41:48.205Z,2764.00
2023-01-27T15:42:48.172Z,2757.00
2023-01-27T15:43:48.150Z,2754.00
2023-01-27T15:44:48.101Z,2748.00
2023-01-27T15:45:48.184Z,2745.00
2023-01-27T15:46:48.017Z,2743.00
2023-01-27T15:47:47.987Z,2740.00
2023-01-27T15:48:47.952Z,2743.00
2023-01-27T15:49:47.917Z,2746.00
2023-01-27T15:50:47.889Z,2752.00
2023-01-27T15:51:47.840Z,2755.00
2023-01-27T15:52:47.804Z,2756.00
2023-01-27T15:53:47.770Z,2755.00
2023-01-27T15:54:47.741Z,2755.00
2023-01-27T15:55:47.724Z,2753.00
2023-01-27T15:56:47.721Z,2750.00
2023-01-27T15:57:47.728Z,2749.00
2023-01-27T15:58:47.733Z,2747.00
2023-01-27T15:59:58.462Z,2738.00
2023-01-27T16:00:48.760Z,2739.00
2023-01-27T16:01:47.662Z,2746.00
2023-01-27T16:02:47.617Z,2742.00
2023-01-27T16:03:47.586Z,2738.00
2023-01-27T16:04:47.541Z,2732.00
2023-01-27T16:05:47.515Z,2726.00
2023-01-27T16:06:47.479Z,2726.00
2023-01-27T16:07:47.441Z,2724.00
2023-01-27T16:08:47.403Z,2727.00
2023-01-27T16:09:47.389Z,2730.00
2023-01-27T16:10:47.348Z,2731.00
2023-01-27T16:11:47.306Z,2733.00
2023-01-27T16:12:47.314Z,2730.00
2023-01-27T16:13:47.274Z,2728.00
2023-01-27T16:14:47.300Z,2723.00
2023-01-27T16:15:47.313Z,2723.00
2023-01-27T16:16:47.412Z,2720.00
2023-01-27T16:17:47.363Z,2719.00
2023-01-27T16:18:47.375Z,2719.00
2023-01-27T16:19:47.384Z,2719.00
2023-01-27T16:20:47.436Z,2718.00
2023-01-27T16:21:47.386Z,2720.00
2023-01-27T16:22:47.440Z,2718.00
2023-01-27T16:23:47.388Z,2715.00
2023-01-27T16:24:47.474Z,2713.00
2023-01-27T16:25:47.414Z,2706.00
2023-01-27T16:26:47.446Z,2705.00
2023-01-27T16:27:47.478Z,2704.00
2023-01-27T16:28:47.479Z,2707.00
2023-01-27T16:29:47.496Z,2703.00
2023-01-27T16:30:47.524Z,2701.00
2023-01-27T16:31:47.548Z,2699.00
2023-01-27T16:32:47.462Z,2701.00
2023-01-27T16:33:47.455Z,2698.00
2023-01-27T16:34:47.470Z,2695.00
2023-01-27T16:35:47.478Z,2695.00
2023-01-27T16:36:47.476Z,2695.00
2023-01-27T16:37:47.496Z,2693.00
2023-01-27T16:38:47.507Z,2690.00
2023-01-27T16:39:47.512Z,2687.00
2023-01-27T16:40:48.435Z,2685.00
2023-01-27T16:41:47.540Z,2682.00
2023-01-27T16:42:47.546Z,2681.00
2023-01-27T16:43:47.538Z,2684.00
2023-01-27T16:44:47.511Z,2682.00
2023-01-27T16:45:47.528Z,2681.00
2023-01-27T16:46:47.560Z,2676.00
2023-01-27T16:47:47.505Z,2679.00
2023-01-27T16:48:48.445Z,2674.00
2023-01-27T16:49:47.524Z,2669.00
2023-01-27T16:50:47.493Z,2665.00
2023-01-27T16:51:47.483Z,2663.00
2023-01-27T16:52:47.490Z,2661.00
2023-01-27T16:53:47.528Z,2662.00
2023-01-27T16:54:47.497Z,2658.00
2023-01-27T16:55:47.506Z,2655.00
2023-01-27T16:56:47.522Z,2654.00
2023-01-27T16:57:47.955Z,2651.00
2023-01-27T16:58:49.378Z,2652.00
2023-01-27T16:59:47.443Z,2648.00
2023-01-27T17:00:47.508Z,2647.00
2023-01-27T17:01:47.416Z,2645.00
2023-01-27T17:02:47.369Z,2645.00
2023-01-27T17:03:47.947Z,2644.00
2023-01-27T17:04:47.243Z,2639.00
2023-01-27T17:05:47.209Z,2639.00
2023-01-27T17:06:47.194Z,2639.00
2023-01-27T17:07:47.144Z,2635.00
2023-01-27T17:08:47.112Z,2633.00
2023-01-27T17:09:47.059Z,2630.00
2023-01-27T17:10:47.015Z,2636.00
2023-01-27T17:11:46.984Z,2633.00
2023-01-27T17:12:46.944Z,2634.00
2023-01-27T17:13:46.899Z,2632.00
2023-01-27T17:14:46.877Z,2628.00
2023-01-27T17:15:46.820Z,2624.00
2023-01-27T17:16:46.791Z,2620.00
2023-01-27T17:17:46.726Z,2617.00
2023-01-27T17:18:52.543Z,2622.00
2023-01-27T17:19:47.657Z,2619.00
2023-01-27T17:20:46.634Z,2612.00
2023-01-27T17:21:46.599Z,2604.00
2023-01-27T17:22:46.531Z,2605.00
2023-01-27T17:23:46.495Z,2604.00
2023-01-27T17:24:48.465Z,2602.00
2023-01-27T17:25:46.411Z,2597.00
2023-01-27T17:26:46.395Z,2594.00
2023-01-27T17:27:46.349Z,2595.00
2023-01-27T17:28:46.307Z,2590.00
2023-01-27T17:29:46.272Z,2590.00
2023-01-27T17:30:46.298Z,2590.00
2023-01-27T17:31:46.292Z,2591.00
2023-01-27T17:32:46.134Z,2591.00
2023-01-27T17:33:46.088Z,2593.00
2023-01-27T17:34:46.093Z,2588.00
2023-01-27T17:35:46.035Z,2590.00
2023-01-27T17:36:45.969Z,2591.00
2023-01-27T17:37:45.944Z,2590.00
2023-01-27T17:38:45.928Z,2593.00
2023-01-27T17:39:45.866Z,2587.00
2023-01-27T17:40:45.895Z,2586.00
2023-01-27T17:41:45.792Z,2583.00
2023-01-27T17:42:45.752Z,2579.00
2023-01-27T17:43:45.709Z,2576.00
2023-01-27T17:44:45.670Z,2568.00
2023-01-27T17:45:45.640Z,2565.00
2023-01-27T17:46:45.582Z,2568.00
2023-01-27T17:47:45.549Z,2570.00
2023-01-27T17:48:45.505Z,2571.00
2023-01-27T17:49:45.481Z,2573.00
2023-01-27T17:50:45.413Z,2571.00
2023-01-27T17:51:45.482Z,2565.00
2023-01-27T17:52:52.564Z,2562.00
2023-01-27T17:53:46.281Z,2567.00
2023-01-27T17:54:45.238Z,2565.00
2023-01-27T17:55:45.207Z,2557.00
2023-01-27T17:56:45.217Z,2551.00
2023-01-27T17:57:45.160Z,2547.00
2023-01-27T17:58:45.081Z,2548.00
2023-01-27T17:59:45.026Z,2542.00
2023-01-27T18:00:44.987Z,2543.00
2023-01-27T18:01:45.013Z,2537.00
2023-01-27T18:02:44.973Z,2532.00
2023-01-27T18:03:44.993Z,2530.00
2023-01-27T18:04:45.006Z,2529.00
2023-01-27T18:05:45.037Z,2531.00
2023-01-27T18:06:45.069Z,2532.00
2023-01-27T18:07:45.156Z,2534.00
2023-01-27T18:08:45.167Z,2534.00
2023-01-27T18:09:45.145Z,2533.00
2023-01-27T18:10:45.172Z,2530.00
2023-01-27T18:11:45.211Z,2525.00
2023-01-27T18:12:45.215Z,2524.00
2023-01-27T18:13:45.233Z,2524.00
2023-01-27T18:14:45.240Z,2519.00
2023-01-27T18:15:45.298Z,2519.00
2023-01-27T18:16:45.273Z,2517.00
2023-01-27T18:17:45.305Z,2516.00
2023-01-27T18:18:45.333Z,2513.00
2023-01-27T18:19:45.339Z,2513.00
2023-01-27T18:20:45.344Z,2510.00
2023-01-27T18:21:45.367Z,2507.00
2023-01-27T18:22:45.385Z,2504.00
2023-01-27T18:23:45.388Z,2502.00
2023-01-27T18:24:45.479Z,2497.00
2023-01-27T18:25:45.428Z,2495.00
2023-01-27T18:26:45.489Z,2497.00
2023-01-27T18:27:45.443Z,2497.00
2023-01-27T18:28:45.474Z,2494.00
2023-01-27T18:29:45.499Z,2495.00
2023-01-27T18:30:45.483Z,2489.00
2023-01-27T18:31:45.577Z,2487.00
2023-01-27T18:32:45.528Z,2485.00
2023-01-27T18:33:45.544Z,2490.00
2023-01-27T18:34:45.554Z,2481.00
2023-01-27T18:35:46.479Z,2478.00
2023-01-27T18:36:45.552Z,2477.00
2023-01-27T18:37:45.549Z,2471.00
2023-01-27T18:38:45.566Z,2467.00
2023-01-27T18:39:45.594Z,2467.00
2023-01-27T18:40:45.570Z,2464.00
2023-01-27T18:41:45.568Z,2464.00
2023-01-27T18:42:45.637Z,2465.00
2023-01-27T18:43:45.555Z,2463.00
2023-01-27T18:44:45.529Z,2460.00
2023-01-27T18:45:45.520Z,2460.00
2023-01-27T18:46:45.529Z,2462.00
2023-01-27T18:47:45.444Z,2462.00
2023-01-27T18:48:45.426Z,2460.00
2023-01-27T18:49:45.392Z,2457.00
2023-01-27T18:50:45.373Z,2459.00
2023-01-27T18:51:45.344Z,2456.00
2023-01-27T18:52:45.413Z,2450.00
2023-01-27T18:53:45.269Z,2448.00
2023-01-27T18:54:45.232Z,2447.00
2023-01-27T18:55:45.270Z,2445.00
2023-01-27T18:56:45.161Z,2443.00
2023-01-27T18:57:45.129Z,2444.00
2023-01-27T18:58:45.108Z,2442.00
2023-01-27T18:59:45.111Z,2444.00
2023-01-27T19:00:45.139Z,2443.00
2023-01-27T19:01:45.108Z,2438.00
2023-01-27T19:02:45.034Z,2435.00
2023-01-27T19:03:45.014Z,2428.00
2023-01-27T19:04:45.020Z,2424.00
2023-01-27T19:05:44.989Z,2422.00
2023-01-27T19:06:44.930Z,2417.00
2023-01-27T19:07:44.911Z,2419.00
2023-01-27T19:08:44.857Z,2426.00
2023-01-27T19:09:44.860Z,2425.00
2023-01-27T19:10:44.844Z,2427.00
2023-01-27T19:11:44.797Z,2427.00
2023-01-27T19:12:44.772Z,2428.00
2023-01-27T19:13:44.768Z,2426.00
2023-01-27T19:14:44.763Z,2422.00
2023-01-27T19:15:44.988Z,2419.00
2023-01-27T19:16:44.748Z,2419.00
2023-01-27T19:17:44.745Z,2419.00
2023-01-27T19:18:44.761Z,2420.00
2023-01-27T19:19:44.788Z,2418.00
2023-01-27T19:20:44.781Z,2418.00
2023-01-27T19:21:44.730Z,2411.00
2023-01-27T19:22:45.549Z,2408.00
2023-01-27T19:23:44.766Z,2407.00
2023-01-27T19:24:44.588Z,2398.00
2023-01-27T19:25:44.533Z,2395.00
2023-01-27T19:26:44.513Z,2395.00
2023-01-27T19:27:44.481Z,2397.00
2023-01-27T19:28:44.426Z,2393.00
2023-01-27T19:29:44.395Z,2388.00
2023-01-27T19:30:44.365Z,2388.00
2023-01-27T22:45:39.498Z,2112.00
2023-01-27T22:46:41.450Z,2111.00
2023-01-27T22:47:39.278Z,2109.00
2023-01-27T22:48:39.255Z,2106.00
2023-01-27T22:49:39.209Z,2101.00
2023-01-27T22:50:39.164Z,2100.00
2023-01-27T22:51:39.121Z,2097.00
2023-01-27T22:53:39.039Z,2095.00
2023-01-27T22:54:38.996Z,2098.00
2023-01-27T22:55:38.996Z,2099.00
2023-01-27T22:56:38.909Z,2096.00
2023-01-27T22:57:38.865Z,2087.00
2023-01-27T22:58:38.834Z,2081.00
2023-01-27T22:59:38.785Z,2074.00
2023-01-27T23:00:38.751Z,2072.00
2023-01-27T23:01:38.751Z,2071.00
2023-01-27T23:02:38.706Z,2074.00
2023-01-27T23:03:39.577Z,2076.00
2023-01-27T23:04:38.623Z,2079.00
2023-01-27T23:05:38.541Z,2081.00
2023-01-27T23:06:38.499Z,2079.00
2023-01-27T23:07:38.450Z,2077.00
2023-01-27T23:08:38.425Z,2068.00
2023-01-27T23:09:38.373Z,2062.00
2023-01-27T23:10:38.336Z,2062.00
2023-01-27T23:11:38.285Z,2064.00
2023-01-27T23:12:38.246Z,2064.00
2023-01-27T23:13:38.217Z,2062.00
2023-01-27T23:14:38.175Z,2053.00
2023-01-27T23:15:38.124Z,2048.00
2023-01-27T23:16:38.155Z,2050.00
2023-01-27T23:17:38.041Z,2050.00
2023-01-27T23:18:37.997Z,2048.00
2023-01-27T23:19:37.963Z,2048.00
2023-01-27T23:20:37.907Z,2049.00
2023-01-27T23:21:37.887Z,2047.00
2023-01-27T23:22:37.828Z,2048.00
2023-01-27T23:23:38.075Z,2049.00
2023-01-27T23:24:37.742Z,2048.00
2023-01-27T23:25:37.706Z,2046.00
2023-01-27T23:26:37.671Z,2041.00
2023-01-27T23:27:37.628Z,2037.00
2023-01-27T23:28:37.592Z,2036.00
2023-01-27T23:29:37.543Z,2036.00
2023-01-27T23:30:37.575Z,2034.00
2023-01-27T23:31:37.614Z,2035.00
2023-01-27T23:32:37.417Z,2035.00
2023-01-27T23:33:37.399Z,2032.00
2023-01-27T23:34:37.325Z,2033.00
2023-01-27T23:35:37.293Z,2032.00
2023-01-27T23:36:37.250Z,2030.00
2023-01-27T23:37:37.205Z,2031.00
2023-01-27T23:38:37.159Z,2030.00
2023-01-27T23:39:37.120Z,2032.00
2023-01-27T23:40:38.099Z,2031.00
2023-01-27T23:41:37.035Z,2033.00
2023-01-27T23:42:37.005Z,2032.00
2023-01-27T23:43:36.946Z,2032.00
2023-01-27T23:44:36.980Z,2033.00
2023-01-27T23:45:36.877Z,2027.00
2023-01-27T23:46:36.855Z,2024.00
2023-01-27T23:47:36.808Z,2023.00
2023-01-27T23:48:36.778Z,2024.00
2023-01-27T23:49:36.733Z,2022.00
2023-01-27T23:50:36.693Z,2025.00
2023-01-27T23:51:36.660Z,2021.00
2023-01-27T23:52:36.629Z,2022.00
2023-01-27T23:53:36.609Z,2021.00
2023-01-27T23:54:36.562Z,2019.00
2023-01-27T23:55:36.565Z,2021.00
2023-01-27T23:56:36.497Z,2015.00
2023-01-27T23:57:36.434Z,2010.00
2023-01-27T23:58:36.404Z,2008.00
2023-01-27T23:59:36.374Z,2006.00
